Time;durP1;ratioP1;P1;durP2;ratioP2;P2;SDS_P1;SDS_P2;PMS_P1;PMS_P2;Temp;Humidity;BMP_temperature;BMP_pressure;BME280_temperature;BME280_humidity;BME280_pressure;Samples;Min_cycle;Max_cycle;Signal;HPM_P1;HPM_P2
2022/12/23 00:01:43;;;;;;;;;69.25;53.50;;;;;15.69;47.35;99169.41;5029689;28;8887;-75
2022/12/23 00:04:12;;;;;;;;;66.25;53.75;;;;;15.73;47.13;99164.91;5012435;28;8864;-78
2022/12/23 00:06:41;;;;;;;;;58.75;47.50;;;;;15.76;47.46;99159.59;5010739;28;8844;-78
2022/12/23 00:09:09;;;;;;;;;67.25;53.75;;;;;15.78;46.95;99168.28;5028454;28;8878;-76
2022/12/23 00:15:04;;;;;;;;;65.33;51.00;;;;;15.81;47.48;99167.38;5024925;28;8971;-79
2022/12/23 00:17:15;;;;;;;;;88.50;73.25;;;;;14.63;51.30;99182.56;5017641;28;9984;-79
2022/12/23 00:19:50;;;;;;;;;86.00;76.00;;;;;14.98;50.15;99171.22;5009830;28;10342;-79
2022/12/23 00:22:19;;;;;;;;;94.00;86.00;;;;;14.49;52.02;99180.22;5009635;28;10308;-78
2022/12/23 00:24:47;;;;;;;;;98.00;89.25;;;;;14.24;53.07;99188.63;5010487;28;10747;-76
2022/12/23 00:27:17;;;;;;;;;103.75;93.00;;;;;14.50;52.29;99191.56;5010161;28;11073;-79
2022/12/23 00:29:46;;;;;;;;;92.50;84.75;;;;;14.65;51.89;99191.28;5009477;28;11073;-74
2022/12/23 00:32:14;;;;;;;;;106.25;96.00;;;;;14.74;52.19;99187.56;5009151;28;11178;-77
2022/12/23 00:34:43;;;;;;;;;109.00;94.75;;;;;14.84;51.65;99181.22;5007169;28;11396;-77
2022/12/23 00:37:12;;;;;;;;;104.50;98.75;;;;;14.74;51.71;99191.03;5009380;28;11310;-79
2022/12/23 00:45:24;;;;;;;;;104.25;95.25;;;;;14.94;51.23;99190.56;4898480;29;11251;-79
2022/12/23 00:50:40;;;;;;;;;87.25;76.25;;;;;15.11;50.86;99187.53;4919929;29;11669;-77
2022/12/23 00:53:08;;;;;;;;;97.50;87.50;;;;;15.16;51.12;99190.91;4929716;29;10449;-80
2022/12/23 00:55:37;;;;;;;;;97.50;89.50;;;;;15.15;51.44;99190.94;4913901;29;10849;-77
2022/12/23 00:58:07;;;;;;;;;90.00;76.00;;;;;15.17;52.00;99192.63;4913750;29;11007;-78
2022/12/23 01:06:08;;;;;;;;;85.25;69.00;;;;;15.06;52.28;99184.16;4928140;29;9939;-76
2022/12/23 01:08:36;;;;;;;;;84.00;71.00;;;;;15.07;52.32;99178.00;4928820;29;9852;-78
2022/12/23 01:11:07;;;;;;;;;88.00;71.75;;;;;15.05;52.50;99177.19;4929363;29;9743;-75
2022/12/23 01:13:38;;;;;;;;;87.75;72.25;;;;;15.13;52.40;99171.75;4929679;29;9501;-76
2022/12/23 01:16:09;;;;;;;;;81.00;65.75;;;;;15.12;52.04;99175.25;4929526;29;9797;-78
2022/12/23 01:18:45;;;;;;;;;85.25;68.00;;;;;15.16;52.13;99176.91;4934735;28;9670;-77
2022/12/23 01:21:14;;;;;;;;;84.00;67.75;;;;;15.19;52.05;99161.94;4967287;28;9811;-77
2022/12/23 01:23:42;;;;;;;;;83.67;68.00;;;;;15.11;51.86;99169.16;4944575;28;9733;-76
2022/12/23 01:26:11;;;;;;;;;80.25;62.25;;;;;15.10;52.06;99170.03;4989978;28;9462;-77
2022/12/23 01:28:41;;;;;;;;;83.33;64.67;;;;;15.13;52.12;99172.59;5008544;28;9779;-78
2022/12/23 01:31:10;;;;;;;;;81.50;65.00;;;;;15.15;51.81;99165.53;5007466;28;9414;-79
2022/12/23 01:33:39;;;;;;;;;78.75;64.00;;;;;15.15;52.05;99169.94;5008533;28;9441;-79
2022/12/23 01:36:09;;;;;;;;;77.33;62.33;;;;;15.16;51.72;99171.66;5006955;28;9577;-77
2022/12/23 01:38:37;;;;;;;;;82.75;66.50;;;;;15.19;51.89;99169.81;4979902;28;9449;-75
2022/12/23 01:41:06;;;;;;;;;79.67;63.00;;;;;15.22;51.64;99163.63;4989614;28;9653;-79
2022/12/23 01:43:46;;;;;;;;;76.67;60.00;;;;;15.39;51.50;99169.31;5007033;28;9423;-78
2022/12/23 01:46:15;;;;;;;;;80.33;61.33;;;;;15.25;51.44;99155.66;4990684;28;9368;-78
2022/12/23 01:48:47;;;;;;;;;76.33;59.67;;;;;15.24;51.63;99163.59;5006647;28;9220;-77
2022/12/23 01:51:23;;;;;;;;;79.67;62.00;;;;;15.35;51.31;99154.53;5008328;28;9324;-78
2022/12/23 01:53:57;;;;;;;;;76.00;59.67;;;;;15.33;51.71;99158.09;5012489;28;9628;-76
2022/12/23 01:56:29;;;;;;;;;82.67;65.67;;;;;15.33;51.25;99152.84;5029383;28;9466;-76
2022/12/23 01:59:02;;;;;;;;;80.00;62.33;;;;;15.31;51.27;99146.75;5031440;28;10354;-79
2022/12/23 02:04:20;;;;;;;;;76.00;60.33;;;;;15.21;51.95;99152.25;5030168;28;9029;-77
2022/12/23 02:09:39;;;;;;;;;76.67;61.00;;;;;15.23;52.59;99146.09;5011692;28;8969;-76
2022/12/23 02:12:41;;;;;;;;;75.50;59.25;;;;;15.38;52.41;99145.69;5031419;28;9002;-79
2022/12/23 02:18:42;;;;;;;;;71.75;57.50;;;;;15.15;53.65;99141.91;4915838;29;8880;-77
2022/12/23 02:21:32;;;;;;;;;72.00;55.50;;;;;14.59;55.25;99139.78;4915340;29;8869;-77
2022/12/23 02:24:26;;;;;;;;;64.75;52.00;;;;;14.79;55.13;99138.44;4896533;29;8871;-79
2022/12/23 02:27:15;;;;;;;;;64.00;51.75;;;;;14.93;55.17;99138.09;4900399;29;8886;-77
2022/12/23 02:30:08;;;;;;;;;66.00;53.25;;;;;15.00;55.48;99129.16;4930980;29;8889;-78
2022/12/23 02:32:57;;;;;;;;;65.00;52.25;;;;;15.02;55.55;99132.63;4920934;29;8887;-81
2022/12/23 02:35:31;;;;;;;;;62.50;51.25;;;;;14.94;55.70;99134.59;4896055;29;8872;-77
2022/12/23 02:38:07;;;;;;;;;61.75;49.75;;;;;14.94;56.14;99138.06;4912010;29;9007;-78
2022/12/23 02:40:43;;;;;;;;;58.50;47.00;;;;;14.99;55.72;99130.09;4911443;29;8892;-77
2022/12/23 02:43:19;;;;;;;;;59.25;46.50;;;;;15.07;56.04;99129.88;4866204;29;8888;-78
2022/12/23 02:45:54;;;;;;;;;62.00;49.25;;;;;15.09;56.15;99126.31;4910736;29;8854;-77
2022/12/23 02:48:31;;;;;;;;;53.00;44.50;;;;;15.08;56.72;99118.47;4931142;29;8877;-79
2022/12/23 02:51:02;;;;;;;;;55.25;45.75;;;;;14.81;57.64;99123.50;4930381;29;8878;-77
2022/12/23 02:53:35;;;;;;;;;9.00;3.25;;;;;14.66;58.99;99134.38;4926494;28;9097;-76
2022/12/23 02:56:07;;;;;;;;;55.25;44.75;;;;;14.76;58.37;99128.00;4952597;28;8864;-77
2022/12/23 02:58:41;;;;;;;;;54.25;44.75;;;;;14.87;58.19;99120.72;4952737;28;8968;-78
2022/12/23 03:01:13;;;;;;;;;58.00;46.00;;;;;14.97;57.91;99117.00;5002374;28;8858;-78
2022/12/23 03:03:45;;;;;;;;;55.75;46.25;;;;;15.10;57.58;99121.91;5028327;28;8858;-76
2022/12/23 03:06:21;;;;;;;;;43.00;36.50;;;;;15.18;57.33;99122.59;5012577;28;8886;-77
2022/12/23 03:08:52;;;;;;;;;56.00;44.00;;;;;15.19;57.15;99119.91;5029249;28;8871;-77
2022/12/23 03:11:22;;;;;;;;;59.50;49.25;;;;;15.27;56.65;99118.84;5013193;28;8858;-78
2022/12/23 03:14:12;;;;;;;;;60.25;47.50;;;;;15.16;57.49;99119.13;5009148;28;8969;-78
2022/12/23 03:16:52;;;;;;;;;52.50;44.50;;;;;14.85;59.07;99119.91;5025845;28;8885;-77
2022/12/23 03:19:30;;;;;;;;;52.50;42.50;;;;;14.77;59.85;99109.59;5010834;28;8889;-76
2022/12/23 03:22:08;;;;;;;;;36.00;33.75;;;;;14.64;60.98;99105.56;4992952;28;8862;-75
2022/12/23 03:24:49;;;;;;;;;36.75;31.00;;;;;14.39;62.44;99105.25;5009987;28;9654;-75
2022/12/23 03:27:26;;;;;;;;;28.40;26.80;;;;;14.29;63.56;99108.97;5010037;28;8896;-75
2022/12/23 03:29:59;;;;;;;;;42.75;34.50;;;;;14.49;62.05;99101.50;5010104;28;8897;-77
2022/12/23 03:32:32;;;;;;;;;44.25;36.25;;;;;14.59;61.70;99102.16;5009719;28;8854;-78
2022/12/23 03:35:06;;;;;;;;;47.75;40.00;;;;;14.51;61.98;99106.72;5008873;28;9035;-78
2022/12/23 03:37:40;;;;;;;;;50.25;42.00;;;;;14.43;62.02;99099.88;5046909;28;8982;-76
2022/12/23 03:40:15;;;;;;;;;46.75;40.25;;;;;14.52;61.37;99093.56;5030317;28;8862;-78
2022/12/23 03:42:49;;;;;;;;;33.50;31.00;;;;;14.45;61.85;99094.59;4981397;28;8858;-75
2022/12/23 03:45:23;;;;;;;;;40.00;38.00;;;;;14.45;62.30;99099.84;5046768;28;8858;-77
2022/12/23 03:48:17;;;;;;;;;41.00;37.00;;;;;14.57;61.42;99091.75;5046288;28;8959;-77
2022/12/23 03:50:52;;;;;;;;;43.00;38.25;;;;;14.60;61.38;99090.78;5046986;28;8993;-75
2022/12/23 03:53:25;;;;;;;;;41.75;37.25;;;;;14.55;61.04;99097.88;5013699;28;9595;-74
2022/12/23 03:55:59;;;;;;;;;43.75;37.00;;;;;14.52;61.02;99097.97;5047146;28;8854;-78
2022/12/23 03:58:35;;;;;;;;;43.33;38.33;;;;;14.59;60.39;99097.81;5047111;28;8846;-78
2022/12/23 04:01:12;;;;;;;;;49.25;43.00;;;;;14.62;60.17;99096.84;5063722;28;8873;-78
2022/12/23 04:03:48;;;;;;;;;55.75;46.00;;;;;14.50;60.06;99091.84;4997564;28;9599;-76
2022/12/23 04:06:21;;;;;;;;;50.00;42.75;;;;;13.93;62.48;99095.78;5039874;28;8848;-77
2022/12/23 04:08:52;;;;;;;;;54.00;44.50;;;;;13.98;61.84;99097.41;5053753;28;8843;-79
2022/12/23 04:11:20;;;;;;;;;51.50;41.50;;;;;13.69;63.14;99097.16;5011881;28;8883;-77
2022/12/23 04:13:49;;;;;;;;;54.25;45.00;;;;;13.62;63.05;99104.28;5028524;28;8864;-74
2022/12/23 04:16:18;;;;;;;;;59.50;46.25;;;;;13.43;63.67;99098.53;4995287;28;8878;-79
2022/12/23 04:18:47;;;;;;;;;56.00;47.00;;;;;13.72;62.59;99104.94;4991735;28;8858;-75
2022/12/23 04:21:15;;;;;;;;;54.25;46.00;;;;;13.75;62.40;99108.38;5008264;28;8862;-78
2022/12/23 04:23:45;;;;;;;;;55.75;46.00;;;;;13.68;62.77;99104.16;5018823;28;8847;-77
2022/12/23 04:26:14;;;;;;;;;59.50;48.50;;;;;13.62;62.98;99099.88;5027662;28;8957;-74
2022/12/23 04:28:43;;;;;;;;;57.75;46.25;;;;;13.75;62.21;99104.91;5060608;28;8851;-79
2022/12/23 04:31:11;;;;;;;;;57.00;45.75;;;;;13.49;62.86;99097.56;5015775;28;8905;-78
2022/12/23 04:33:40;;;;;;;;;65.75;51.00;;;;;13.42;63.10;99096.78;5007956;28;8858;-75
2022/12/23 04:36:09;;;;;;;;;60.75;50.50;;;;;13.42;63.43;99091.56;5007935;28;8869;-79
2022/12/23 04:38:37;;;;;;;;;55.75;45.00;;;;;13.20;64.18;99099.81;5007899;28;8967;-78
2022/12/23 04:41:07;;;;;;;;;52.25;43.25;;;;;13.31;63.98;99090.91;5017725;28;8856;-75
2022/12/23 04:43:36;;;;;;;;;62.50;49.75;;;;;13.36;63.64;99092.53;5028635;28;8949;-78
2022/12/23 04:46:04;;;;;;;;;55.25;45.75;;;;;13.52;62.85;99098.38;5028474;28;8982;-77
2022/12/23 04:48:33;;;;;;;;;60.50;49.50;;;;;13.60;62.48;99098.22;4994239;28;8864;-79
2022/12/23 04:51:02;;;;;;;;;62.00;49.50;;;;;13.63;62.44;99093.78;5020059;28;8877;-75
2022/12/23 04:53:31;;;;;;;;;62.50;50.25;;;;;13.70;61.87;99098.88;5008560;28;8976;-73
2022/12/23 04:55:59;;;;;;;;;61.00;50.00;;;;;13.75;61.40;99100.50;5007122;28;8857;-75
2022/12/23 04:58:30;;;;;;;;;63.25;52.50;;;;;13.78;61.14;99096.94;5052402;28;8887;-77
2022/12/23 05:01:02;;;;;;;;;62.75;52.25;;;;;13.78;60.88;99099.56;4998637;28;8982;-75
2022/12/23 05:03:31;;;;;;;;;65.75;53.00;;;;;13.76;60.54;99106.59;4997106;28;8871;-76
2022/12/23 05:06:00;;;;;;;;;74.75;57.75;;;;;13.67;60.98;99094.56;5014975;28;8905;-75
2022/12/23 05:08:29;;;;;;;;;56.50;45.75;;;;;13.70;60.66;99096.25;4998329;28;8859;-75
2022/12/23 05:10:57;;;;;;;;;53.50;44.75;;;;;13.67;61.09;99096.31;5027253;28;8871;-78
2022/12/23 05:13:26;;;;;;;;;61.25;50.25;;;;;13.62;61.10;99097.28;5012614;28;8875;-76
2022/12/23 05:15:56;;;;;;;;;60.25;51.00;;;;;13.57;61.57;99093.91;5031070;28;8848;-75
2022/12/23 05:18:25;;;;;;;;;54.75;46.25;;;;;13.40;61.98;99093.34;5014715;28;8839;-78
2022/12/23 05:20:54;;;;;;;;;54.75;46.50;;;;;13.29;62.75;99097.88;4998840;28;8875;-75
2022/12/23 05:23:23;;;;;;;;;61.50;48.00;;;;;13.29;63.14;99097.88;5029660;28;8898;-78
2022/12/23 05:25:53;;;;;;;;;59.50;47.50;;;;;13.27;62.93;99105.81;5009045;28;8844;-77
2022/12/23 05:28:23;;;;;;;;;49.50;42.75;;;;;13.32;63.31;99103.97;5009397;28;8882;-77
2022/12/23 05:30:59;;;;;;;;;51.00;43.50;;;;;13.26;63.72;99102.28;5009010;28;8860;-78
2022/12/23 05:33:29;;;;;;;;;58.00;45.75;;;;;13.20;64.12;99098.94;4961364;28;8942;-73
2022/12/23 05:35:58;;;;;;;;;53.50;45.25;;;;;13.21;64.19;99095.41;5008894;28;8917;-77
2022/12/23 05:38:27;;;;;;;;;59.75;48.00;;;;;13.19;64.04;99105.91;5005600;28;8838;-76
2022/12/23 05:40:56;;;;;;;;;53.50;43.50;;;;;12.99;65.33;99097.59;4988978;28;9133;-79
2022/12/23 05:43:25;;;;;;;;;48.75;42.50;;;;;13.17;64.64;99099.84;4985365;28;8893;-76
2022/12/23 05:45:53;;;;;;;;;54.75;43.75;;;;;13.22;64.33;99098.00;4985416;28;8993;-77
2022/12/23 05:48:24;;;;;;;;;52.50;43.25;;;;;13.34;63.83;99109.19;4952987;28;8873;-77
2022/12/23 05:50:53;;;;;;;;;45.50;40.75;;;;;13.40;63.21;99106.44;4985581;28;9121;-78
2022/12/23 05:53:23;;;;;;;;;56.00;44.75;;;;;13.43;63.18;99115.09;4993935;28;8888;-77
2022/12/23 05:55:51;;;;;;;;;54.75;45.50;;;;;13.46;62.85;99106.34;4988992;28;8865;-75
2022/12/23 05:58:20;;;;;;;;;54.75;46.25;;;;;13.49;62.55;99108.88;5021638;28;9003;-77
2022/12/23 06:00:49;;;;;;;;;53.00;45.00;;;;;13.56;62.41;99117.50;5021393;28;8887;-76
2022/12/23 06:03:17;;;;;;;;;56.25;46.00;;;;;13.61;61.74;99116.53;4987633;28;8861;-77
2022/12/23 06:05:51;;;;;;;;;60.25;46.75;;;;;13.71;62.11;99122.44;4972767;28;8890;-79
2022/12/23 06:08:20;;;;;;;;;56.50;46.25;;;;;13.59;61.87;99118.31;5021384;28;8872;-77
2022/12/23 06:10:49;;;;;;;;;57.00;47.50;;;;;13.56;62.21;99120.97;5024277;28;8903;-78
2022/12/23 06:13:17;;;;;;;;;56.25;46.50;;;;;13.62;61.87;99120.84;5041347;28;8864;-76
2022/12/23 06:15:46;;;;;;;;;55.75;45.75;;;;;13.63;61.77;99119.97;4988530;28;8882;-77
2022/12/23 06:18:15;;;;;;;;;54.50;44.00;;;;;13.62;61.74;99126.09;4988563;28;8858;-77
2022/12/23 06:20:45;;;;;;;;;55.25;46.75;;;;;13.63;61.69;99126.97;5001179;28;8860;-77
2022/12/23 06:23:16;;;;;;;;;61.25;47.00;;;;;13.66;61.66;99126.91;5009515;28;8855;-76
2022/12/23 06:25:44;;;;;;;;;51.00;41.25;;;;;13.67;61.98;99133.00;5025521;28;8859;-77
2022/12/23 06:28:13;;;;;;;;;54.75;43.75;;;;;13.70;61.93;99125.94;5058108;28;8855;-78
2022/12/23 06:30:41;;;;;;;;;53.00;44.50;;;;;13.74;61.56;99134.59;5009057;28;8848;-78
2022/12/23 06:33:10;;;;;;;;;56.00;47.00;;;;;13.80;61.62;99130.13;5025499;28;8871;-80
2022/12/23 06:35:38;;;;;;;;;50.25;42.75;;;;;13.81;61.83;99133.59;5037439;28;8881;-75
2022/12/23 06:38:07;;;;;;;;;57.50;46.50;;;;;13.86;61.64;99144.84;5022570;28;8878;-78
2022/12/23 06:40:41;;;;;;;;;58.50;43.75;;;;;13.86;61.54;99141.38;5061784;28;8859;-77
2022/12/23 06:43:12;;;;;;;;;54.25;43.25;;;;;13.92;61.57;99143.88;5029490;28;8852;-76
2022/12/23 06:45:41;;;;;;;;;60.25;49.00;;;;;13.95;61.89;99149.91;5026906;28;8982;-77
2022/12/23 06:48:10;;;;;;;;;54.50;44.25;;;;;14.11;61.70;99153.06;5030496;28;8938;-78
2022/12/23 06:50:39;;;;;;;;;44.75;36.75;;;;;14.17;61.89;99158.16;5027949;28;8854;-78
2022/12/23 06:53:08;;;;;;;;;41.00;38.75;;;;;14.26;61.67;99157.13;5015156;28;8964;-78
2022/12/23 06:55:37;;;;;;;;;51.00;42.00;;;;;14.37;61.77;99152.50;5022289;28;8854;-78
2022/12/23 06:58:07;;;;;;;;;44.67;39.67;;;;;14.50;61.69;99154.81;5016616;28;8925;-77
2022/12/23 07:00:35;;;;;;;;;53.25;44.25;;;;;14.59;61.22;99152.03;5030458;28;8866;-79
2022/12/23 07:03:04;;;;;;;;;41.25;37.00;;;;;14.73;61.19;99162.22;5028818;28;8880;-77
2022/12/23 07:05:34;;;;;;;;;48.00;39.00;;;;;14.78;61.08;99155.06;5016175;28;9036;-78
2022/12/23 07:08:06;;;;;;;;;49.67;41.33;;;;;14.91;60.56;99161.75;5033848;28;8854;-77
2022/12/23 07:10:34;;;;;;;;;46.00;40.00;;;;;14.93;60.18;99153.84;5014919;28;8853;-75
2022/12/23 07:13:03;;;;;;;;;51.50;41.25;;;;;14.87;60.27;99159.25;5049433;28;8858;-74
2022/12/23 07:15:33;;;;;;;;;50.00;42.00;;;;;14.90;59.79;99153.94;5013083;28;8868;-75
2022/12/23 07:18:02;;;;;;;;;47.25;41.50;;;;;14.91;59.93;99156.50;5015649;28;8879;-76
2022/12/23 07:20:30;;;;;;;;;48.25;41.50;;;;;14.88;59.95;99155.75;5026405;28;8868;-76
2022/12/23 07:22:59;;;;;;;;;53.50;43.75;;;;;14.85;60.14;99158.44;5049932;28;8858;-78
2022/12/23 07:25:28;;;;;;;;;55.25;45.00;;;;;14.85;60.02;99155.81;5033056;28;8870;-77
2022/12/23 07:27:57;;;;;;;;;44.25;38.75;;;;;14.80;60.12;99155.91;5033705;28;9171;-78
2022/12/23 07:30:25;;;;;;;;;45.75;38.00;;;;;14.79;60.03;99152.41;5062746;28;8969;-78
2022/12/23 07:32:55;;;;;;;;;42.50;38.50;;;;;14.84;60.48;99161.94;5001423;28;8982;-76
2022/12/23 07:35:24;;;;;;;;;44.50;38.50;;;;;14.89;60.20;99165.34;5010028;28;8858;-78
2022/12/23 07:37:54;;;;;;;;;45.75;39.50;;;;;14.93;60.09;99160.00;4992388;28;8893;-77
2022/12/23 07:40:23;;;;;;;;;42.50;37.50;;;;;15.04;59.88;99156.22;5009799;28;8905;-78
2022/12/23 07:42:55;;;;;;;;;43.00;38.25;;;;;15.14;59.81;99176.97;5000662;28;8868;-76
2022/12/23 07:45:24;;;;;;;;;49.75;38.25;;;;;15.21;59.71;99165.38;5026802;28;8837;-78
2022/12/23 07:47:55;;;;;;;;;47.00;39.50;;;;;15.33;59.60;99174.72;5009530;28;8838;-77
2022/12/23 07:50:24;;;;;;;;;42.00;38.25;;;;;15.39;59.55;99173.72;5026716;28;8888;-78
2022/12/23 07:52:54;;;;;;;;;49.00;41.00;;;;;15.50;59.58;99163.78;4977821;28;8884;-77
2022/12/23 07:55:23;;;;;;;;;51.75;41.25;;;;;15.60;58.88;99167.88;5027182;28;8874;-77
2022/12/23 07:57:52;;;;;;;;;44.00;37.75;;;;;15.72;58.71;99168.44;5010686;28;8873;-76
2022/12/23 08:00:21;;;;;;;;;45.50;40.25;;;;;15.83;58.76;99178.69;5010685;28;8866;-78
2022/12/23 08:02:50;;;;;;;;;49.00;41.50;;;;;15.97;58.01;99177.41;5019897;28;8870;-77
2022/12/23 08:05:21;;;;;;;;;50.25;42.00;;;;;16.10;57.71;99177.03;5021386;28;8886;-78
2022/12/23 08:07:51;;;;;;;;;52.00;42.50;;;;;16.21;57.25;99177.59;5007978;28;8850;-76
2022/12/23 08:10:20;;;;;;;;;52.25;43.50;;;;;16.26;57.17;99180.09;5025426;28;8861;-79
2022/12/23 08:12:48;;;;;;;;;46.25;40.75;;;;;16.21;56.91;99179.38;5042258;28;8849;-77
2022/12/23 08:15:17;;;;;;;;;51.00;43.25;;;;;16.36;56.91;99182.38;5042569;28;8862;-79
2022/12/23 08:17:46;;;;;;;;;55.00;44.75;;;;;16.49;56.51;99184.66;5025770;28;8896;-79
2022/12/23 08:20:15;;;;;;;;;53.25;44.00;;;;;16.61;56.46;99193.94;5000120;28;8874;-79
2022/12/23 08:22:45;;;;;;;;;59.00;49.50;;;;;16.66;55.74;99182.38;5006304;28;8880;-78
2022/12/23 08:25:13;;;;;;;;;57.50;47.25;;;;;16.65;55.58;99192.94;5040239;28;8875;-76
2022/12/23 08:27:42;;;;;;;;;55.00;45.25;;;;;16.86;55.53;99197.59;5060114;28;8859;-77
2022/12/23 08:30:11;;;;;;;;;56.50;46.75;;;;;16.99;55.05;99195.38;5026374;28;8970;-78
2022/12/23 08:32:40;;;;;;;;;53.50;45.25;;;;;16.90;55.05;99191.31;4978064;28;8886;-76
2022/12/23 08:35:09;;;;;;;;;56.25;48.25;;;;;17.04;54.26;99193.47;5006264;28;8870;-80
2022/12/23 08:37:38;;;;;;;;;55.50;45.25;;;;;17.06;54.50;99190.81;5022153;28;8967;-76
2022/12/23 08:40:09;;;;;;;;;51.50;43.50;;;;;16.87;54.43;99195.81;5006681;28;8980;-76
2022/12/23 08:42:38;;;;;;;;;51.50;43.25;;;;;16.98;54.52;99198.09;5008873;28;8866;-78
2022/12/23 08:45:07;;;;;;;;;51.25;44.25;;;;;17.11;53.97;99192.38;5011089;28;9498;-78
2022/12/23 08:47:36;;;;;;;;;52.50;43.00;;;;;17.17;53.82;99195.72;4974968;28;8888;-78
2022/12/23 08:50:05;;;;;;;;;51.25;43.25;;;;;17.22;53.85;99194.66;5003355;28;8879;-78
2022/12/23 08:52:34;;;;;;;;;54.25;43.00;;;;;17.12;53.46;99195.84;5019834;28;8918;-77
2022/12/23 08:55:03;;;;;;;;;48.50;42.50;;;;;17.23;53.64;99187.59;5023846;28;8873;-80
2022/12/23 08:57:34;;;;;;;;;56.00;44.75;;;;;17.33;53.40;99179.34;5009655;28;8862;-80
2022/12/23 09:00:03;;;;;;;;;44.50;39.00;;;;;17.36;52.77;99183.66;5013511;28;8862;-81
2022/12/23 09:02:32;;;;;;;;;50.25;39.75;;;;;17.41;52.89;99180.84;5008982;28;8866;-77
2022/12/23 09:05:01;;;;;;;;;50.25;39.75;;;;;17.36;53.39;99178.38;5008668;28;8836;-79
2022/12/23 09:07:30;;;;;;;;;48.75;40.50;;;;;17.33;52.97;99176.72;5029125;28;8928;-78
2022/12/23 09:09:59;;;;;;;;;49.00;42.00;;;;;17.40;52.81;99171.22;4994499;28;8875;-76
2022/12/23 09:12:28;;;;;;;;;49.00;39.50;;;;;17.37;52.69;99164.25;5009806;28;8863;-77
2022/12/23 09:14:58;;;;;;;;;44.75;36.50;;;;;17.30;52.83;99168.91;5009430;28;8883;-78
2022/12/23 09:17:27;;;;;;;;;41.00;35.75;;;;;17.15;52.54;99170.28;4988317;28;8922;-80
2022/12/23 09:19:55;;;;;;;;;49.75;40.25;;;;;17.18;53.26;99174.56;4969155;28;8884;-78
2022/12/23 09:22:24;;;;;;;;;51.75;43.25;;;;;16.79;54.04;99176.72;4968634;28;8865;-79
2022/12/23 09:24:54;;;;;;;;;47.25;40.25;;;;;16.86;53.88;99173.00;4961055;28;8888;-80
2022/12/23 09:27:30;;;;;;;;;52.00;44.25;;;;;16.98;53.56;99177.88;4970278;28;9675;-80
2022/12/23 09:30:00;;;;;;;;;54.25;44.75;;;;;16.97;53.67;99170.88;4969885;28;8888;-78
2022/12/23 09:32:29;;;;;;;;;56.50;47.25;;;;;16.98;54.02;99172.63;4969577;28;8965;-76
2022/12/23 09:34:58;;;;;;;;;56.00;44.25;;;;;17.09;53.53;99170.50;4969124;28;8999;-79
2022/12/23 09:37:26;;;;;;;;;62.50;49.25;;;;;17.19;53.82;99159.66;4969180;28;8837;-77
2022/12/23 09:39:55;;;;;;;;;61.50;50.00;;;;;16.69;54.77;99168.22;4953241;28;8971;-77
2022/12/23 09:42:46;;;;;;;;;61.00;48.25;;;;;16.94;54.70;99163.94;4969218;28;8876;-78
2022/12/23 09:45:26;;;;;;;;;58.75;47.50;;;;;16.97;54.81;99162.97;4989225;28;9040;-79
2022/12/23 09:47:56;;;;;;;;;69.75;55.75;;;;;16.72;55.28;99163.72;4995095;28;8854;-78
2022/12/23 09:50:28;;;;;;;;;55.75;44.50;;;;;16.64;55.27;99160.50;5009160;28;8883;-77
2022/12/23 09:53:02;;;;;;;;;58.50;49.25;;;;;16.90;54.84;99157.06;5025991;28;8879;-77
2022/12/23 09:55:40;;;;;;;;;55.25;45.00;;;;;17.08;53.71;99155.56;5015788;28;8974;-77
2022/12/23 09:58:22;;;;;;;;;59.75;49.25;;;;;17.18;53.86;99147.38;4988465;28;8985;-79
2022/12/23 10:01:08;;;;;;;;;58.50;47.25;;;;;17.41;53.69;99154.47;4985743;28;9014;-76
2022/12/23 10:03:55;;;;;;;;;57.75;47.75;;;;;17.61;52.99;99149.38;5004820;28;9026;-78
2022/12/23 10:06:28;;;;;;;;;50.00;43.00;;;;;17.70;52.57;99140.28;4971882;28;9135;-76
2022/12/23 10:09:00;;;;;;;;;52.50;43.00;;;;;17.75;52.26;99133.06;4971730;28;8968;-77
2022/12/23 10:11:34;;;;;;;;;52.50;43.00;;;;;17.33;51.55;99131.03;4953753;28;8968;-77
2022/12/23 10:14:14;;;;;;;;;50.75;42.75;;;;;17.74;51.71;99132.19;5024730;28;8895;-79
2022/12/23 10:16:49;;;;;;;;;53.50;44.00;;;;;17.75;51.05;99130.44;4976031;28;9825;-78
2022/12/23 10:19:23;;;;;;;;;50.75;41.25;;;;;17.11;52.00;99129.13;4988918;28;8908;-79
2022/12/23 10:21:54;;;;;;;;;54.75;45.50;;;;;17.50;51.77;99131.31;4998503;28;9663;-77
2022/12/23 10:24:25;;;;;;;;;49.75;42.25;;;;;17.70;51.48;99127.94;4976520;28;8867;-80
2022/12/23 10:26:55;;;;;;;;;58.00;46.25;;;;;17.51;51.52;99125.09;5027596;28;9711;-78
2022/12/23 10:29:26;;;;;;;;;52.75;43.25;;;;;17.76;51.11;99116.31;5032118;28;9612;-79
2022/12/23 10:32:13;;;;;;;;;47.25;39.75;;;;;18.13;50.50;99112.34;5029093;28;8881;-77
2022/12/23 10:34:50;;;;;;;;;52.00;42.50;;;;;18.18;50.39;99112.13;5051510;28;8947;-76
2022/12/23 10:37:30;;;;;;;;;51.25;42.00;;;;;18.34;49.70;99115.06;5011664;28;8998;-77
2022/12/23 10:40:11;;;;;;;;;46.50;38.50;;;;;18.42;48.83;99110.31;5021985;28;8888;-78
2022/12/23 10:42:51;;;;;;;;;49.25;39.00;;;;;18.55;48.92;99116.84;5029757;28;8852;-79
2022/12/23 10:45:38;;;;;;;;;50.50;36.75;;;;;18.73;48.03;99114.38;5013155;28;8925;-81
2022/12/23 10:48:24;;;;;;;;;42.50;38.25;;;;;18.75;47.64;99115.16;5015446;28;8896;-78
2022/12/23 10:51:01;;;;;;;;;48.25;39.00;;;;;18.41;47.38;99117.41;5045007;28;8867;-80
2022/12/23 10:53:37;;;;;;;;;50.25;39.00;;;;;18.40;47.35;99104.25;5009950;28;8883;-79
2022/12/23 10:56:07;;;;;;;;;49.75;41.50;;;;;18.55;47.41;99098.34;5045900;28;9025;-76
2022/12/23 10:58:40;;;;;;;;;52.50;43.50;;;;;18.76;47.31;99098.41;5021202;28;8860;-77
2022/12/23 11:01:12;;;;;;;;;43.75;38.00;;;;;18.89;46.71;99087.28;5012236;28;8890;-77
2022/12/23 11:04:01;;;;;;;;;46.00;38.25;;;;;19.14;46.29;99098.59;5029187;28;8870;-78
2022/12/23 11:06:32;;;;;;;;;43.75;38.25;;;;;19.14;46.00;99094.16;5029609;28;8952;-79
2022/12/23 11:09:15;;;;;;;;;48.25;39.75;;;;;19.33;45.75;99096.88;5030224;28;8890;-77
2022/12/23 11:11:56;;;;;;;;;40.75;35.00;;;;;19.41;45.15;99083.31;5061035;28;8948;-79
2022/12/23 11:14:37;;;;;;;;;42.00;36.50;;;;;19.48;45.01;99087.41;5029321;28;8997;-79
2022/12/23 11:17:19;;;;;;;;;40.00;35.75;;;;;19.50;44.94;99090.00;5016976;28;8858;-78
2022/12/23 11:20:05;;;;;;;;;43.00;38.25;;;;;18.85;45.40;99085.69;5030831;28;8883;-76
2022/12/23 11:22:34;;;;;;;;;38.60;33.20;;;;;18.71;45.86;99090.66;5032023;28;8887;-77
2022/12/23 11:25:26;;;;;;;;;39.60;34.40;;;;;19.13;45.59;99081.91;5011285;28;8964;-77
2022/12/23 11:27:58;;;;;;;;;44.50;35.50;;;;;19.07;45.70;99083.00;5012833;28;8864;-78
2022/12/23 11:30:28;;;;;;;;;37.40;32.00;;;;;19.14;45.35;99083.59;5013504;28;9628;-78
2022/12/23 11:32:58;;;;;;;;;39.50;35.00;;;;;18.91;45.41;99075.81;5032634;28;8954;-80
2022/12/23 11:35:30;;;;;;;;;42.25;35.75;;;;;18.93;45.06;99087.16;5047437;28;8936;-79
2022/12/23 11:38:01;;;;;;;;;41.80;36.60;;;;;19.00;45.46;99076.25;5046884;28;8860;-75
2022/12/23 11:40:33;;;;;;;;;46.00;36.25;;;;;19.15;45.58;99076.50;5028695;28;8880;-73
2022/12/23 11:43:04;;;;;;;;;40.50;36.50;;;;;18.82;45.70;99075.25;5027256;28;8953;-75
2022/12/23 11:45:37;;;;;;;;;29.80;28.00;;;;;19.06;45.19;99081.28;5044265;28;8868;-76
2022/12/23 11:48:25;;;;;;;;;28.40;26.00;;;;;19.17;44.58;99082.59;4973840;28;8876;-73
2022/12/23 11:51:01;;;;;;;;;35.00;31.60;;;;;19.33;44.20;99075.72;5026714;28;8880;-74
2022/12/23 11:53:31;;;;;;;;;30.00;28.20;;;;;19.32;43.80;99076.66;5010414;28;8848;-76
2022/12/23 11:56:03;;;;;;;;;20.60;19.20;;;;;19.31;43.67;99068.78;5018025;28;8917;-78
2022/12/23 11:58:39;;;;;;;;;22.00;20.80;;;;;18.31;45.15;99068.50;5064516;28;8883;-78
2022/12/23 12:01:16;;;;;;;;;24.00;24.00;;;;;18.83;44.69;99063.78;5029072;28;8954;-77
2022/12/23 12:03:51;;;;;;;;;29.60;28.20;;;;;18.87;44.64;99064.50;5029354;28;8848;-79
2022/12/23 12:06:23;;;;;;;;;24.20;21.60;;;;;19.07;44.43;99061.00;5025313;28;8904;-79
2022/12/23 12:08:55;;;;;;;;;26.80;25.80;;;;;19.07;44.02;99053.94;5009990;28;8851;-80
2022/12/23 12:11:28;;;;;;;;;25.60;21.60;;;;;19.14;43.79;99057.16;5028051;28;8890;-78
2022/12/23 12:14:00;;;;;;;;;22.40;22.00;;;;;18.68;44.00;99067.03;5032704;28;8887;-79